Time;durP1;ratioP1;P1;durP2;ratioP2;P2;SDS_P1;SDS_P2;PMS_P1;PMS_P2;Temp;Humidity;BMP_temperature;BMP_pressure;BME280_temperature;BME280_humidity;BME280_pressure;Samples;Min_cycle;Max_cycle;Signal;HPM_P1;HPM_P2
2022/12/22 03:27:06;;;;;;;1.60;1.45;;;9.20;99.90;;;;;;7375092;32;20339;-60
2022/12/22 03:31:08;;;;;;;2.67;1.40;;;9.20;99.90;;;;;;7374064;32;20103;-60
2022/12/22 03:35:10;;;;;;;2.65;1.20;;;9.20;99.90;;;;;;7375707;32;20138;-60
2022/12/22 03:39:12;;;;;;;1.20;1.10;;;9.20;99.90;;;;;;7376524;32;20519;-60
2022/12/22 03:47:35;;;;;;;2.53;1.25;;;9.20;99.90;;;;;;7372870;32;20214;-60
2022/12/22 03:51:46;;;;;;;5.10;1.15;;;9.20;99.90;;;;;;7373292;32;20218;-59
2022/12/22 03:55:47;;;;;;;2.33;1.15;;;9.20;99.90;;;;;;7376776;32;20132;-60
2022/12/22 03:59:49;;;;;;;1.40;1.00;;;9.20;99.90;;;;;;7378027;32;20095;-61
2022/12/22 04:03:52;;;;;;;1.35;1.05;;;9.30;99.90;;;;;;7375585;32;20197;-61
2022/12/22 04:07:53;;;;;;;1.40;0.95;;;9.30;99.90;;;;;;7379283;32;20184;-60
2022/12/22 04:16:15;;;;;;;2.30;1.15;;;9.30;99.90;;;;;;7381053;32;20277;-60
2022/12/22 04:20:18;;;;;;;2.40;1.33;;;9.40;99.90;;;;;;7382281;32;20579;-60
2022/12/22 04:24:21;;;;;;;2.15;1.10;;;9.40;99.90;;;;;;7387436;32;20218;-60
2022/12/22 04:28:22;;;;;;;2.95;1.50;;;9.30;99.90;;;;;;7378294;32;20129;-60
2022/12/22 04:32:24;;;;;;;1.65;1.50;;;9.40;99.90;;;;;;7382840;32;20187;-60
2022/12/22 04:36:26;;;;;;;2.90;2.00;;;9.30;99.90;;;;;;7382224;32;20279;-60
2022/12/22 04:40:27;;;;;;;2.12;1.80;;;9.30;99.90;;;;;;7377583;32;20133;-59
2022/12/22 04:44:29;;;;;;;2.33;2.08;;;9.40;99.90;;;;;;7381823;32;20932;-61
2022/12/22 04:48:32;;;;;;;4.78;2.40;;;9.40;99.90;;;;;;7380973;32;20194;-61
2022/12/22 04:52:34;;;;;;;3.25;2.78;;;9.30;99.90;;;;;;7377872;32;20188;-61
2022/12/22 04:56:35;;;;;;;4.28;2.80;;;9.40;99.90;;;;;;7378749;32;20162;-60
2022/12/22 05:00:37;;;;;;;3.67;2.95;;;9.40;99.90;;;;;;7381737;32;20212;-59
2022/12/22 05:04:38;;;;;;;5.07;2.92;;;9.40;99.90;;;;;;7385532;32;20546;-60
2022/12/22 05:08:41;;;;;;;5.45;3.05;;;9.40;99.90;;;;;;7383546;32;20174;-60
2022/12/22 05:12:54;;;;;;;5.72;3.45;;;9.40;99.90;;;;;;7371605;32;20107;-60
2022/12/22 05:16:56;;;;;;;5.22;3.75;;;9.50;99.90;;;;;;7372952;32;20182;-59
2022/12/22 05:21:00;;;;;;;4.12;3.62;;;9.50;99.90;;;;;;7375593;32;20118;-59
2022/12/22 05:25:02;;;;;;;4.32;3.45;;;9.30;99.90;;;;;;7379628;32;20138;-60
2022/12/22 05:29:04;;;;;;;4.10;3.65;;;9.60;99.90;;;;;;7377029;32;20763;-60
2022/12/22 05:33:06;;;;;;;5.57;4.53;;;9.60;99.90;;;;;;7370410;32;20600;-60
2022/12/22 05:37:07;;;;;;;5.10;4.60;;;9.50;99.90;;;;;;7371539;32;20103;-61
2022/12/22 05:41:09;;;;;;;5.62;4.82;;;9.40;99.90;;;;;;7378608;32;20125;-62
2022/12/22 05:45:15;;;;;;;5.85;5.25;;;9.50;99.90;;;;;;7378194;32;20136;-62
2022/12/22 05:49:18;;;;;;;8.02;5.90;;;9.60;99.90;;;;;;7364772;32;20608;-60
2022/12/22 05:53:19;;;;;;;6.05;5.45;;;9.50;99.90;;;;;;7370112;32;20095;-62
2022/12/22 05:57:22;;;;;;;6.43;5.72;;;9.60;99.90;;;;;;7375268;32;20124;-62
2022/12/22 06:01:23;;;;;;;6.45;5.80;;;9.50;99.90;;;;;;7378390;32;22185;-58
2022/12/22 06:05:25;;;;;;;5.90;5.30;;;9.50;99.90;;;;;;7366497;32;20115;-59
2022/12/22 06:09:27;;;;;;;5.85;5.25;;;9.40;99.90;;;;;;7380560;32;20126;-59
2022/12/22 06:13:28;;;;;;;5.85;5.07;;;9.50;99.90;;;;;;7375840;32;20129;-59
2022/12/22 06:17:30;;;;;;;6.30;5.70;;;9.50;99.90;;;;;;7371251;32;20133;-59
2022/12/22 06:21:32;;;;;;;6.35;5.62;;;9.40;99.90;;;;;;7365482;32;20123;-61
2022/12/22 06:25:34;;;;;;;10.93;8.30;;;9.40;99.90;;;;;;7373465;32;20171;-60
2022/12/22 06:29:36;;;;;;;7.25;6.43;;;9.40;99.90;;;;;;7379906;32;20531;-62
2022/12/22 06:33:37;;;;;;;9.63;7.55;;;9.40;99.90;;;;;;7374818;32;20103;-61
2022/12/22 06:37:39;;;;;;;8.75;7.68;;;9.40;99.90;;;;;;7372142;32;20130;-60
2022/12/22 06:46:03;;;;;;;10.57;7.40;;;9.30;99.90;;;;;;7364760;32;20133;-57
2022/12/22 06:50:06;;;;;;;10.88;9.40;;;9.30;99.90;;;;;;7376550;32;20567;-58
2022/12/22 06:54:07;;;;;;;9.18;8.25;;;9.30;99.90;;;;;;7376431;32;20139;-58
2022/12/22 06:58:09;;;;;;;10.02;8.95;;;9.30;99.90;;;;;;7366307;32;20184;-60
2022/12/22 07:02:11;;;;;;;11.88;9.55;;;9.40;99.90;;;;;;7373147;32;20844;-58
2022/12/22 07:06:13;;;;;;;23.42;18.87;;;9.40;99.90;;;;;;7370033;32;20129;-60
2022/12/22 07:10:15;;;;;;;11.48;10.27;;;9.50;99.90;;;;;;7363809;32;20522;-60
2022/12/22 07:14:16;;;;;;;11.63;10.20;;;9.50;99.90;;;;;;7375039;32;20198;-61
2022/12/22 07:18:18;;;;;;;12.80;10.25;;;9.60;99.90;;;;;;7378128;32;20103;-61
2022/12/22 07:22:20;;;;;;;10.80;9.68;;;9.50;99.90;;;;;;7380201;32;20118;-61
2022/12/22 07:26:30;;;;;;;11.18;9.88;;;9.60;99.90;;;;;;7371670;32;20293;-62
2022/12/22 07:30:32;;;;;;;10.63;9.02;;;9.60;99.90;;;;;;7355227;32;20142;-61
2022/12/22 07:34:34;;;;;;;13.57;10.05;;;9.60;99.90;;;;;;7363589;32;20178;-61
2022/12/22 07:38:38;;;;;;;12.10;9.95;;;9.60;99.90;;;;;;7352896;32;20221;-64
2022/12/22 07:42:43;;;;;;;15.35;9.40;;;9.60;99.90;;;;;;7350888;32;20637;-63
2022/12/22 07:46:44;;;;;;;12.30;8.88;;;9.70;99.90;;;;;;7360262;32;20186;-63
2022/12/22 07:50:46;;;;;;;10.45;8.10;;;9.70;99.90;;;;;;7366487;32;20194;-62
2022/12/22 07:54:48;;;;;;;11.73;8.10;;;9.80;99.90;;;;;;7365390;32;20765;-63
2022/12/22 07:58:50;;;;;;;11.05;8.52;;;9.80;99.90;;;;;;7360735;32;20914;-64
2022/12/22 08:02:54;;;;;;;14.63;11.57;;;9.80;99.90;;;;;;7361912;32;20206;-64
2022/12/22 08:06:56;;;;;;;16.92;13.40;;;9.70;99.90;;;;;;7361077;32;20168;-63
2022/12/22 08:11:01;;;;;;;16.73;12.48;;;9.60;99.90;;;;;;7361445;32;20215;-63
2022/12/22 08:15:05;;;;;;;18.37;12.88;;;9.60;99.90;;;;;;7367557;32;20286;-62
2022/12/22 08:19:07;;;;;;;19.20;13.82;;;9.60;99.90;;;;;;7362783;32;20182;-64
2022/12/22 08:23:08;;;;;;;20.30;15.13;;;9.50;99.90;;;;;;7357237;32;20209;-63
2022/12/22 08:27:15;;;;;;;28.48;20.17;;;9.60;99.90;;;;;;7365687;32;20174;-63
2022/12/22 08:31:29;;;;;;;27.45;20.15;;;9.50;99.90;;;;;;7367485;32;20499;-65
2022/12/22 08:35:31;;;;;;;30.00;20.02;;;9.50;99.90;;;;;;7381650;32;20535;-61
2022/12/22 08:39:38;;;;;;;30.35;20.37;;;9.40;99.90;;;;;;7374415;32;20218;-60
2022/12/22 08:43:40;;;;;;;;;;;9.40;99.90;;;;;;7371195;32;20234;-62
2022/12/22 08:47:41;;;;;;;34.17;23.58;;;9.40;99.90;;;;;;7372899;32;20024;-61
2022/12/22 08:51:43;;;;;;;37.83;25.15;;;9.50;99.90;;;;;;7369644;32;20099;-61
2022/12/22 08:55:53;;;;;;;37.33;25.17;;;9.40;99.90;;;;;;7368581;32;20107;-62
2022/12/22 08:59:54;;;;;;;36.67;24.23;;;9.30;99.90;;;;;;7370584;32;20107;-61
2022/12/22 09:03:56;;;;;;;36.53;23.85;;;9.40;99.90;;;;;;7381545;32;20159;-61
2022/12/22 09:08:01;;;;;;;34.92;22.50;;;9.40;99.90;;;;;;7373676;32;20126;-62
2022/12/22 09:12:03;;;;;;;32.97;22.02;;;9.40;99.90;;;;;;7371807;32;20240;-61
2022/12/22 09:16:06;;;;;;;29.25;18.98;;;9.50;99.90;;;;;;7368529;32;20119;-62
2022/12/22 09:20:09;;;;;;;34.80;22.17;;;9.50;99.90;;;;;;7375615;32;20195;-61
2022/12/22 09:24:10;;;;;;;34.45;22.02;;;9.50;99.90;;;;;;7373678;32;20850;-62
2022/12/22 09:28:12;;;;;;;41.65;24.25;;;9.60;99.90;;;;;;7368155;32;20135;-61
2022/12/22 09:32:14;;;;;;;43.45;27.10;;;9.60;99.90;;;;;;7378335;31;20127;-61
2022/12/22 09:36:19;;;;;;;39.22;22.75;;;9.70;99.90;;;;;;7377801;32;20183;-63
2022/12/22 09:40:21;;;;;;;36.10;21.62;;;9.70;99.90;;;;;;7372301;32;20114;-63
2022/12/22 09:44:33;;;;;;;34.08;19.52;;;9.70;99.90;;;;;;7384838;32;20202;-62
2022/12/22 09:48:36;;;;;;;29.90;17.85;;;9.70;99.90;;;;;;7378680;32;20103;-63
2022/12/22 09:52:45;;;;;;;28.50;17.90;;;9.70;99.90;;;;;;7377086;32;20103;-63
2022/12/22 09:56:46;;;;;;;20.48;13.77;;;9.70;99.90;;;;;;7376473;32;20219;-62
2022/12/22 10:00:54;;;;;;;20.95;14.48;;;9.60;99.90;;;;;;7378857;32;20190;-62
2022/12/22 10:05:09;;;;;;;20.20;14.10;;;9.60;99.90;;;;;;7375225;32;20257;-62
2022/12/22 10:09:22;;;;;;;23.40;15.00;;;9.60;99.90;;;;;;7376234;32;20107;-63
2022/12/22 10:13:45;;;;;;;22.48;15.30;;;9.50;99.90;;;;;;7376971;32;20130;-62
2022/12/22 10:17:49;;;;;;;25.92;14.48;;;9.50;99.90;;;;;;7372347;32;20198;-62
2022/12/22 10:21:51;;;;;;;25.05;15.38;;;9.50;99.90;;;;;;7380301;32;20170;-62
2022/12/22 10:25:56;;;;;;;24.30;15.98;;;9.50;99.90;;;;;;7371348;32;20103;-64
2022/12/22 10:30:24;;;;;;;25.48;16.87;;;9.50;99.90;;;;;;7371286;32;20107;-62
2022/12/22 10:34:26;;;;;;;27.58;17.08;;;9.40;99.90;;;;;;7364976;32;21640;-64
2022/12/22 10:38:32;;;;;;;28.12;16.92;;;9.50;99.90;;;;;;7360646;32;20118;-63
2022/12/22 10:42:34;;;;;;;28.02;17.75;;;9.40;99.90;;;;;;7366206;32;20183;-63
2022/12/22 10:46:51;;;;;;;28.83;17.25;;;9.50;99.90;;;;;;7361064;32;20263;-64
2022/12/22 10:50:53;;;;;;;35.25;18.95;;;9.60;99.90;;;;;;7365958;32;20162;-62
2022/12/22 10:55:15;;;;;;;32.33;19.27;;;9.60;99.90;;;;;;7368231;32;20130;-62
2022/12/22 10:59:22;;;;;;;29.58;18.45;;;9.90;99.90;;;;;;7368961;32;20194;-63
2022/12/22 11:03:29;;;;;;;25.00;16.42;;;9.90;99.90;;;;;;7365297;32;20115;-62
2022/12/22 11:07:36;;;;;;;27.08;16.62;;;9.80;99.90;;;;;;7373605;32;20182;-62
2022/12/22 11:11:43;;;;;;;27.58;17.10;;;9.70;99.90;;;;;;7362283;32;20225;-62
2022/12/22 11:15:55;;;;;;;28.25;17.83;;;9.60;99.90;;;;;;7373349;32;20111;-61
2022/12/22 11:20:23;;;;;;;25.55;16.87;;;9.60;99.90;;;;;;7373223;32;20190;-63
2022/12/22 11:24:39;;;;;;;;;;;9.60;99.90;;;;;;7345923;32;20190;-62
2022/12/22 11:29:04;;;;;;;27.37;16.85;;;9.70;99.90;;;;;;7366583;32;20024;-62
2022/12/22 11:33:30;;;;;;;23.35;15.20;;;9.70;99.90;;;;;;7365914;32;20121;-62
2022/12/22 11:37:56;;;;;;;23.80;14.15;;;9.70;99.90;;;;;;7375730;32;20182;-63
2022/12/22 11:42:28;;;;;;;21.85;13.88;;;9.50;99.90;;;;;;7375745;32;20186;-62
2022/12/22 11:46:43;;;;;;;23.87;13.43;;;9.30;99.90;;;;;;7372417;32;20161;-63
2022/12/22 11:50:48;;;;;;;22.42;14.50;;;9.40;99.90;;;;;;7383126;32;20099;-61
2022/12/22 11:55:27;;;;;;;22.13;14.27;;;9.60;99.90;;;;;;7368415;32;20161;-62
2022/12/22 11:59:44;;;;;;;22.45;13.38;;;9.70;99.90;;;;;;7377473;32;20489;-63
2022/12/22 12:04:23;;;;;;;21.60;12.85;;;9.60;99.90;;;;;;7373161;32;20217;-62
2022/12/22 12:08:36;;;;;;;18.98;13.32;;;9.50;99.90;;;;;;7374759;32;20115;-61
2022/12/22 12:12:54;;;;;;;24.95;15.05;;;9.50;99.90;;;;;;7378083;32;20206;-61
2022/12/22 12:17:11;;;;;;;21.80;15.07;;;9.50;99.90;;;;;;7376014;32;20240;-61
2022/12/22 12:22:02;;;;;;;23.43;14.90;;;9.60;99.90;;;;;;7374983;32;20570;-62
2022/12/22 12:26:18;;;;;;;21.45;14.30;;;9.70;99.90;;;;;;7381212;32;20198;-62
2022/12/22 12:30:22;;;;;;;21.90;13.47;;;9.70;99.90;;;;;;7368822;32;20153;-64
2022/12/22 12:34:44;;;;;;;21.62;13.50;;;9.90;99.90;;;;;;7365749;32;20345;-64
2022/12/22 12:39:10;;;;;;;22.10;14.18;;;9.90;99.90;;;;;;7375236;32;20132;-62
2022/12/22 12:43:13;;;;;;;20.50;13.90;;;9.90;99.90;;;;;;7369864;32;20820;-62
2022/12/22 12:47:25;;;;;;;21.25;12.73;;;9.80;99.90;;;;;;7371405;32;20400;-61
2022/12/22 12:52:03;;;;;;;19.45;14.27;;;9.80;99.90;;;;;;7377821;32;20181;-61
2022/12/22 12:56:07;;;;;;;;;;;9.80;99.90;;;;;;7349711;32;20610;-64
2022/12/22 13:00:31;;;;;;;23.45;14.20;;;9.70;99.90;;;;;;7375022;32;20422;-62
2022/12/22 13:05:00;;;;;;;28.08;15.63;;;9.80;99.90;;;;;;7376311;32;20110;-62
2022/12/22 13:09:05;;;;;;;19.37;14.00;;;9.90;99.90;;;;;;7381145;32;20211;-62
2022/12/22 13:13:26;;;;;;;23.23;13.65;;;9.90;99.90;;;;;;7370471;32;20679;-61
2022/12/22 13:17:51;;;;;;;21.17;13.50;;;10.00;99.90;;;;;;7368457;32;20135;-61
2022/12/22 13:21:56;;;;;;;17.25;13.05;;;9.90;99.90;;;;;;7370103;32;20294;-61
2022/12/22 13:26:01;;;;;;;16.27;11.20;;;10.00;99.90;;;;;;7366697;32;20107;-60
2022/12/22 13:30:03;;;;;;;16.05;9.98;;;10.10;99.90;;;;;;7367764;32;20131;-62
2022/12/22 13:34:15;;;;;;;18.08;10.50;;;10.10;99.90;;;;;;7374797;32;20549;-61
2022/12/22 13:38:35;;;;;;;14.90;9.77;;;10.30;99.90;;;;;;7372774;32;20201;-62
2022/12/22 13:42:40;;;;;;;13.23;9.45;;;10.30;99.90;;;;;;7360027;32;20273;-62
2022/12/22 13:46:43;;;;;;;16.05;9.05;;;10.10;99.90;;;;;;7369186;32;20140;-62
2022/12/22 13:50:51;;;;;;;16.12;9.65;;;9.80;99.90;;;;;;7375152;32;20107;-62
2022/12/22 13:54:53;;;;;;;17.15;10.20;;;9.80;99.90;;;;;;7376995;32;20106;-62
2022/12/22 13:58:58;;;;;;;14.25;9.55;;;9.60;99.90;;;;;;7377269;32;20103;-63
2022/12/22 14:03:01;;;;;;;15.43;9.60;;;9.70;99.90;;;;;;7377976;32;20221;-64
2022/12/22 14:07:11;;;;;;;15.82;8.90;;;9.60;99.90;;;;;;7376922;32;20535;-62
2022/12/22 14:11:13;;;;;;;20.25;10.43;;;9.70;99.90;;;;;;7370611;32;20156;-62
2022/12/22 14:15:18;;;;;;;15.45;9.98;;;9.60;99.90;;;;;;7380992;32;20114;-63
2022/12/22 14:19:22;;;;;;;14.63;10.10;;;9.60;99.90;;;;;;7372303;32;20794;-62
2022/12/22 14:23:23;;;;;;;14.43;9.10;;;9.70;99.90;;;;;;7372706;32;20106;-62
2022/12/22 14:27:31;;;;;;;16.00;10.30;;;9.70;99.90;;;;;;7374198;32;20148;-63
2022/12/22 14:31:33;;;;;;;19.17;10.70;;;9.60;99.90;;;;;;7375687;32;20127;-62
2022/12/22 14:35:35;;;;;;;15.05;9.95;;;9.50;99.90;;;;;;7369034;32;20133;-61
2022/12/22 14:39:36;;;;;;;16.73;11.68;;;9.40;99.90;;;;;;7371413;32;20325;-62
2022/12/22 14:43:38;;;;;;;19.10;13.00;;;9.30;99.90;;;;;;7371030;32;20106;-62
2022/12/22 14:47:40;;;;;;;25.60;16.35;;;9.30;99.90;;;;;;7368407;32;20129;-62
2022/12/22 14:51:42;;;;;;;26.40;17.05;;;9.40;99.90;;;;;;7367131;32;20193;-61
2022/12/22 14:55:49;;;;;;;27.10;18.15;;;9.30;99.90;;;;;;7367845;32;20115;-63
2022/12/22 15:00:21;;;;;;;27.17;17.30;;;9.20;99.90;;;;;;7368164;32;20111;-64
2022/12/22 15:04:23;;;;;;;24.15;15.75;;;9.20;99.90;;;;;;7377212;32;20102;-64
2022/12/22 15:08:36;;;;;;;15.90;10.88;;;9.20;99.90;;;;;;7361794;32;20268;-63
2022/12/22 15:12:39;;;;;;;19.67;10.98;;;9.20;99.90;;;;;;7367813;32;20171;-63
2022/12/22 15:16:42;;;;;;;16.10;11.12;;;9.10;99.90;;;;;;7376375;32;20127;-62
2022/12/22 15:20:44;;;;;;;13.05;8.23;;;9.10;99.90;;;;;;7372076;32;20110;-63
2022/12/22 15:24:46;;;;;;;14.18;9.02;;;9.10;99.90;;;;;;7370200;32;20177;-62
2022/12/22 15:28:48;;;;;;;11.60;7.78;;;9.00;99.90;;;;;;7371207;32;20127;-62
2022/12/22 15:32:50;;;;;;;13.10;7.50;;;9.00;99.90;;;;;;7370900;32;20526;-63
2022/12/22 15:36:52;;;;;;;8.88;6.75;;;9.10;99.90;;;;;;7373024;32;20201;-61
2022/12/22 15:40:54;;;;;;;9.10;6.28;;;9.10;99.90;;;;;;7376119;32;20830;-61
2022/12/22 15:44:56;;;;;;;11.48;7.03;;;9.10;99.90;;;;;;7368894;32;20123;-61
2022/12/22 15:48:58;;;;;;;10.38;6.47;;;9.10;99.90;;;;;;7374452;32;20194;-60
2022/12/22 15:53:00;;;;;;;10.02;7.00;;;8.90;99.90;;;;;;7373046;32;20107;-61
2022/12/22 15:57:01;;;;;;;9.05;6.00;;;8.80;99.90;;;;;;7373084;32;20294;-59
2022/12/22 16:01:03;;;;;;;9.90;6.82;;;8.70;99.90;;;;;;7368628;32;20132;-59
2022/12/22 16:05:06;;;;;;;9.63;7.10;;;8.80;99.90;;;;;;7372746;32;20111;-60
2022/12/22 16:09:19;;;;;;;11.27;8.23;;;8.80;99.90;;;;;;7373788;32;20483;-60
2022/12/22 16:13:28;;;;;;;13.85;9.05;;;8.70;99.90;;;;;;7373355;32;20179;-61
2022/12/22 16:17:31;;;;;;;14.43;10.60;;;8.70;99.90;;;;;;7373899;32;20125;-62
2022/12/22 16:21:34;;;;;;;14.73;10.93;;;8.60;99.90;;;;;;7375368;32;20135;-59
2022/12/22 16:25:38;;;;;;;13.55;9.52;;;8.60;99.90;;;;;;7377009;32;20126;-59
2022/12/22 16:29:43;;;;;;;13.00;9.00;;;8.70;99.90;;;;;;7371119;32;20134;-60
2022/12/22 16:33:45;;;;;;;13.00;8.68;;;8.70;99.90;;;;;;7360105;32;20234;-59
2022/12/22 16:37:48;;;;;;;10.52;8.15;;;8.70;99.90;;;;;;7375583;32;20182;-60
2022/12/22 16:41:49;;;;;;;14.20;8.70;;;8.80;99.90;;;;;;7372488;32;20489;-63
2022/12/22 16:46:04;;;;;;;9.57;7.72;;;8.70;99.90;;;;;;7380806;32;20179;-60
2022/12/22 16:50:16;;;;;;;8.77;7.37;;;8.70;99.90;;;;;;7370851;32;20107;-59
2022/12/22 16:54:17;;;;;;;12.82;7.95;;;8.70;99.90;;;;;;7380271;32;20675;-59
2022/12/22 16:58:20;;;;;;;8.85;6.37;;;8.60;99.90;;;;;;7367028;32;20133;-58
2022/12/22 17:02:27;;;;;;;8.35;6.60;;;8.60;99.90;;;;;;7369698;32;20201;-59
2022/12/22 17:06:29;;;;;;;9.57;7.15;;;8.60;99.90;;;;;;7378461;32;20114;-59
2022/12/22 17:10:32;;;;;;;10.75;7.18;;;8.50;99.90;;;;;;7370488;32;20103;-59
2022/12/22 17:14:37;;;;;;;9.80;7.37;;;8.60;99.90;;;;;;7374730;32;20130;-58
2022/12/22 17:18:39;;;;;;;10.85;7.93;;;8.70;99.90;;;;;;7367383;32;20245;-58
2022/12/22 17:22:45;;;;;;;15.18;10.05;;;8.70;99.90;;;;;;7371948;32;20107;-59
2022/12/22 17:26:46;;;;;;;19.50;11.65;;;8.70;99.90;;;;;;7371273;32;20107;-58
2022/12/22 17:30:48;;;;;;;17.92;13.52;;;8.60;99.90;;;;;;7372616;32;20252;-58
2022/12/22 17:34:50;;;;;;;19.35;14.40;;;8.60;99.90;;;;;;7368688;32;20103;-60
2022/12/22 17:38:53;;;;;;;19.85;13.62;;;8.60;99.90;;;;;;7371406;32;20114;-59
2022/12/22 17:42:55;;;;;;;19.50;12.98;;;8.60;99.90;;;;;;7362187;32;20214;-60
2022/12/22 17:46:57;;;;;;;19.98;14.27;;;8.70;99.90;;;;;;7372992;32;20095;-61
2022/12/22 17:50:59;;;;;;;20.12;13.55;;;8.70;99.90;;;;;;7373364;32;20187;-59
2022/12/22 17:55:00;;;;;;;18.27;13.25;;;8.70;99.90;;;;;;7368452;32;20133;-60
2022/12/22 17:59:02;;;;;;;20.25;13.48;;;8.70;99.90;;;;;;7366334;32;20134;-61
2022/12/22 18:03:04;;;;;;;16.98;11.57;;;8.70;99.90;;;;;;7372240;32;20519;-59
2022/12/22 18:07:06;;;;;;;16.90;11.60;;;8.70;99.90;;;;;;7369266;32;20522;-59
2022/12/22 18:11:09;;;;;;;14.70;11.00;;;8.70;99.90;;;;;;7370868;32;20106;-59
2022/12/22 18:15:15;;;;;;;15.48;10.07;;;8.70;99.90;;;;;;7363736;32;20134;-60
2022/12/22 18:19:17;;;;;;;13.93;10.15;;;8.70;99.90;;;;;;7371704;32;20717;-59
2022/12/22 18:23:25;;;;;;;13.25;10.48;;;8.60;99.90;;;;;;7374851;32;20220;-59
2022/12/22 18:27:27;;;;;;;16.87;11.18;;;8.70;99.90;;;;;;7365205;32;20107;-59
2022/12/22 18:31:29;;;;;;;14.75;10.75;;;8.60;99.90;;;;;;7361817;32;20690;-60
2022/12/22 18:35:31;;;;;;;14.13;10.57;;;8.70;99.90;;;;;;7369279;32;20187;-61
2022/12/22 18:39:34;;;;;;;16.08;10.85;;;8.70;99.90;;;;;;7365884;32;20260;-60
2022/12/22 18:43:36;;;;;;;14.60;9.73;;;8.70;99.90;;;;;;7363237;32;20228;-59
2022/12/22 18:47:37;;;;;;;15.65;9.82;;;8.70;99.90;;;;;;7372057;32;20122;-59
2022/12/22 18:51:41;;;;;;;12.93;9.13;;;8.70;99.90;;;;;;7367804;32;20220;-60
2022/12/22 18:55:44;;;;;;;12.90;8.88;;;8.70;99.90;;;;;;7372839;32;20290;-60
2022/12/22 18:59:49;;;;;;;12.20;8.18;;;8.80;99.90;;;;;;7374962;32;20133;-59
2022/12/22 19:03:54;;;;;;;12.27;8.00;;;8.80;99.90;;;;;;7367787;32;20665;-60
2022/12/22 19:07:56;;;;;;;8.88;5.78;;;8.80;99.90;;;;;;7366096;32;20127;-59
2022/12/22 19:11:58;;;;;;;12.27;6.57;;;8.90;99.90;;;;;;7367158;32;20123;-63
2022/12/22 19:16:01;;;;;;;13.70;7.32;;;8.90;99.90;;;;;;7365973;32;20212;-62
2022/12/22 19:20:04;;;;;;;10.25;5.87;;;8.80;99.90;;;;;;7368133;32;20539;-61
2022/12/22 19:24:06;;;;;;;12.55;5.47;;;8.80;99.90;;;;;;7360900;32;20164;-60
2022/12/22 19:28:25;;;;;;;10.75;5.20;;;9.00;99.90;;;;;;7372067;32;20159;-60
2022/12/22 19:32:30;;;;;;;14.43;4.90;;;9.00;99.90;;;;;;7361269;32;20123;-59
2022/12/22 19:36:32;;;;;;;12.05;3.97;;;9.00;99.90;;;;;;7364216;32;20251;-59
2022/12/22 19:40:34;;;;;;;16.98;3.78;;;9.10;99.90;;;;;;7368954;32;20107;-60
2022/12/22 19:44:35;;;;;;;12.20;4.97;;;9.00;99.90;;;;;;7368298;32;20107;-60
2022/12/22 19:48:37;;;;;;;14.38;5.40;;;9.10;99.90;;;;;;7362081;32;21016;-60
2022/12/22 19:52:39;;;;;;;14.55;4.70;;;9.00;99.90;;;;;;7364425;32;20136;-60
2022/12/22 19:56:45;;;;;;;14.77;4.30;;;9.10;99.90;;;;;;7370482;32;20107;-60
2022/12/22 20:00:47;;;;;;;16.25;4.80;;;9.10;99.90;;;;;;7362644;32;20148;-60
2022/12/22 20:04:49;;;;;;;18.00;4.78;;;9.10;99.90;;;;;;7367644;32;20178;-60
2022/12/22 20:08:51;;;;;;;19.17;4.37;;;9.10;99.90;;;;;;7371240;32;20186;-60
2022/12/22 20:12:56;;;;;;;17.77;5.10;;;9.20;99.90;;;;;;7360147;32;20103;-60
2022/12/22 20:16:58;;;;;;;23.77;5.47;;;9.30;99.90;;;;;;7369844;32;20106;-61
2022/12/22 20:21:06;;;;;;;22.40;5.25;;;9.30;99.90;;;;;;7367853;32;20227;-59
2022/12/22 20:25:20;;;;;;;16.08;5.15;;;9.30;99.90;;;;;;7368243;32;20205;-60
2022/12/22 20:29:23;;;;;;;22.30;5.65;;;9.30;99.90;;;;;;7366096;32;20614;-61
2022/12/22 20:33:25;;;;;;;28.95;5.70;;;9.40;99.90;;;;;;7372635;32;20164;-61
2022/12/22 20:37:27;;;;;;;16.75;5.35;;;9.30;99.90;;;;;;7365487;32;20151;-59
2022/12/22 20:41:29;;;;;;;26.35;5.78;;;9.40;99.90;;;;;;7368514;32;20258;-59
2022/12/22 20:45:31;;;;;;;24.77;6.53;;;9.40;99.90;;;;;;7372368;32;20472;-60
2022/12/22 20:49:33;;;;;;;27.92;6.75;;;9.40;99.90;;;;;;7382458;32;20134;-59
2022/12/22 20:53:35;;;;;;;19.17;5.62;;;9.30;99.90;;;;;;7384936;32;20107;-60
2022/12/22 20:57:36;;;;;;;20.12;5.82;;;9.40;99.90;;;;;;7382856;32;20228;-59
2022/12/22 21:01:38;;;;;;;19.77;4.95;;;9.40;99.90;;;;;;7383207;32;20237;-60
2022/12/22 21:05:40;;;;;;;24.17;4.93;;;9.50;99.90;;;;;;7379501;32;20197;-61
2022/12/22 21:09:42;;;;;;;19.60;4.70;;;9.50;99.90;;;;;;7384140;32;20144;-60
2022/12/22 21:13:44;;;;;;;19.05;4.65;;;9.50;99.90;;;;;;7376693;32;20293;-61
2022/12/22 21:17:47;;;;;;;24.67;5.43;;;9.40;99.90;;;;;;7378526;32;20106;-59
2022/12/22 21:21:56;;;;;;;25.15;4.25;;;9.40;99.90;;;;;;7375025;32;20107;-59
2022/12/22 21:25:58;;;;;;;25.55;4.95;;;9.50;99.90;;;;;;7371153;32;20281;-60
2022/12/22 21:30:00;;;;;;;24.33;5.30;;;9.50;99.90;;;;;;7365346;32;20217;-61
2022/12/22 21:34:01;;;;;;;26.70;4.97;;;9.50;99.90;;;;;;7362602;32;20129;-60
2022/12/22 21:38:03;;;;;;;28.00;5.47;;;9.60;99.90;;;;;;7366226;32;20217;-58
2022/12/22 21:42:06;;;;;;;20.83;5.00;;;9.60;99.90;;;;;;7375093;32;20190;-61
2022/12/22 21:46:11;;;;;;;20.42;4.50;;;9.60;99.90;;;;;;7368611;32;20189;-60
2022/12/22 21:50:17;;;;;;;22.13;4.90;;;9.60;99.90;;;;;;7373503;32;20205;-60
2022/12/22 21:54:20;;;;;;;22.05;4.90;;;9.60;99.90;;;;;;7366993;32;20126;-60
2022/12/22 21:58:22;;;;;;;22.25;5.35;;;9.60;99.90;;;;;;7377807;32;20128;-61
2022/12/22 22:02:24;;;;;;;26.48;5.32;;;9.70;99.90;;;;;;7364533;32;20137;-60
2022/12/22 22:06:26;;;;;;;27.48;5.57;;;9.60;99.90;;;;;;7364719;32;20624;-60
2022/12/22 22:10:31;;;;;;;28.70;5.53;;;9.70;99.90;;;;;;7375942;32;20103;-59
2022/12/22 22:14:32;;;;;;;23.17;5.25;;;9.60;99.90;;;;;;7367579;32;20222;-61
2022/12/22 22:18:34;;;;;;;22.98;4.53;;;9.60;99.90;;;;;;7368340;32;20204;-60
2022/12/22 22:22:36;;;;;;;26.70;4.65;;;9.60;99.90;;;;;;7372367;32;20241;-59
2022/12/22 22:26:37;;;;;;;24.55;5.47;;;9.60;99.90;;;;;;7365482;32;20107;-60
2022/12/22 22:30:40;;;;;;;19.58;4.85;;;9.60;99.90;;;;;;7364835;32;22038;-61
2022/12/22 22:34:42;;;;;;;19.42;4.85;;;9.60;99.90;;;;;;7369156;32;20193;-62
2022/12/22 22:38:44;;;;;;;20.73;4.28;;;9.60;99.90;;;;;;7370303;32;20103;-59
2022/12/22 22:42:46;;;;;;;17.17;3.67;;;9.60;99.90;;;;;;7371186;32;20125;-62
2022/12/22 22:46:47;;;;;;;16.08;3.53;;;9.60;99.90;;;;;;7366613;32;20147;-62
2022/12/22 22:50:49;;;;;;;16.00;4.07;;;9.60;99.90;;;;;;7372731;32;20493;-61
2022/12/22 22:54:51;;;;;;;20.52;3.67;;;9.60;99.90;;;;;;7378353;32;20102;-60
2022/12/22 22:58:53;;;;;;;24.63;4.78;;;9.60;99.90;;;;;;7367291;32;20679;-62
2022/12/22 23:02:55;;;;;;;14.18;3.00;;;9.60;99.90;;;;;;7371753;32;20221;-61
2022/12/22 23:06:57;;;;;;;14.65;2.90;;;9.50;99.90;;;;;;7373018;32;20115;-61
2022/12/22 23:11:00;;;;;;;16.90;3.50;;;9.50;99.90;;;;;;7368725;32;20137;-61
2022/12/22 23:15:04;;;;;;;18.90;3.22;;;9.60;99.90;;;;;;7362629;32;20611;-61
2022/12/22 23:19:05;;;;;;;13.93;3.05;;;9.60;99.90;;;;;;7379341;32;20099;-60
2022/12/22 23:23:07;;;;;;;17.92;3.50;;;9.50;99.90;;;;;;7366239;32;20141;-61
2022/12/22 23:27:09;;;;;;;13.60;2.92;;;9.50;99.90;;;;;;7372946;32;20221;-61
2022/12/22 23:31:11;;;;;;;11.68;2.60;;;9.50;99.90;;;;;;7371407;32;20197;-61
2022/12/22 23:35:13;;;;;;;15.48;3.28;;;9.60;99.90;;;;;;7362223;32;20178;-62
2022/12/22 23:39:15;;;;;;;15.55;3.60;;;9.50;99.90;;;;;;7376545;32;20118;-60
2022/12/22 23:43:16;;;;;;;13.93;3.03;;;9.60;99.90;;;;;;7373741;32;20116;-60
2022/12/22 23:47:18;;;;;;;9.70;2.60;;;9.60;99.90;;;;;;7366063;32;20157;-59
2022/12/22 23:51:22;;;;;;;12.23;3.10;;;9.60;99.90;;;;;;7374971;32;20221;-59
2022/12/22 23:55:24;;;;;;;16.00;3.53;;;9.50;99.90;;;;;;7364077;32;20565;-59
2022/12/22 23:59:27;;;;;;;16.58;3.40;;;9.50;99.90;;;;;;7380694;32;20121;-61
